Terminal Aerodrome Forecast
Issued by NWS

Home | Current Version | Previous Version | Text Only | Print | Product List | Glossary On
Versions: 1 2 3 4 5 6 7 8 9 10 11 12 13 14 15 16
197
FTUS46 KSTO 072320
TAFSCK
TAF
KSCK 072320Z 0800/0824 VRB04KT P6SM SKC
     FM081200 VRB03KT 4SM BR SKC
      TEMPO 0813/0817 2SM BR
     FM081800 VRB05KT P6SM SKC=

USA.gov is the U.S. government's official web portal to all federal, state and local government web resources and services.